This is the latest recevied weather packets stored in our database for station/object KC5TIL-3. If no packets are shown the sender has not sent any weather packets the latest 10 day(s).
| Time | Temp. | Humidity | Pressure | Rain* | Wind** | Luminosity | Snow |
|---|---|---|---|---|---|---|---|
| 1777733856 | 17.78° C | 34% | 1019.8 hPa | 0 mm | 1.34 m/s, 351° | - | - |
| 1777733555 | 17.22° C | 34% | 1019.8 hPa | 0 mm | 2.24 m/s, 351° | - | - |
| 1777733257 | 17.22° C | 35% | 1019.8 hPa | 0 mm | 2.24 m/s, 351° | - | - |
| 1777732958 | 17.22° C | 37% | 1019.8 hPa | 0 mm | 0 m/s | - | - |
| 1777732657 | 16.67° C | 38% | 1019.8 hPa | 0 mm | 0 m/s | - | - |
| 1777732359 | 16.67° C | 39% | 1019.8 hPa | 0 mm | 1.79 m/s, 292° | - | - |
| 1777732061 | 16.11° C | 40% | 1019.8 hPa | 0 mm | 1.34 m/s, 296° | - | - |
| 1777731759 | 16.11° C | 41% | 1019.8 hPa | 0 mm | 1.34 m/s, 302° | - | - |
| 1777731461 | 16.11° C | 44% | 1019.8 hPa | 0 mm | 1.34 m/s, 295° | - | - |
| 1777731163 | 15.56° C | 45% | 1019.8 hPa | 0 mm | 0 m/s | - | - |
| 1777730862 | 15° C | 46% | 1019.8 hPa | 0 mm | 0 m/s | - | - |
| 1777730564 | 15° C | 47% | 1019.8 hPa | 0 mm | 0 m/s | - | - |
| 1777730265 | 15° C | 47% | 1019.8 hPa | 0 mm | 0 m/s | - | - |
| 1777729964 | 14.44° C | 48% | 1019.8 hPa | 0 mm | 0 m/s | - | - |
| 1777729666 | 14.44° C | 48% | 1019.8 hPa | 0 mm | 0 m/s | - | - |
| 1777729368 | 13.89° C | 49% | 1019.8 hPa | 0 mm | 1.34 m/s, 298° | - | - |
| 1777729066 | 14.44° C | 51% | 1019.8 hPa | 0 mm | 0 m/s | - | - |
| 1777728470 | 13.33° C | 51% | 1019.8 hPa | 0 mm | 1.34 m/s, 297° | - | - |
| 1777728169 | 13.89° C | 51% | 1018.8 hPa | 0 mm | 0 m/s | - | - |
| 1777727871 | 13.33° C | 52% | 1018.8 hPa | 0 mm | 1.34 m/s, 294° | - | - |
| 1777727572 | 13.33° C | 53% | 1018.8 hPa | 0 mm | 1.34 m/s, 296° | - | - |
| 1777727271 | 13.33° C | 53% | 1018.8 hPa | 0 mm | 0 m/s | - | - |
| 1777726973 | 12.78° C | 53% | 1018.8 hPa | 0 mm | 1.79 m/s, 293° | - | - |
| 1777726675 | 12.78° C | 54% | 1018.8 hPa | 0 mm | 1.34 m/s, 295° | - | - |
| 1777726368 | 12.78° C | 54% | 1018.8 hPa | 0 mm | 1.79 m/s, 284° | - | - |
* Rain latest hour (hover to see other rain measurements)
** Current wind speed in m/s (hover to see current wind gust speed)